Time;durP1;ratioP1;P1;durP2;ratioP2;P2;SDS_P1;SDS_P2;PMS_P1;PMS_P2;Temp;Humidity;BMP_temperature;BMP_pressure;BME280_temperature;BME280_humidity;BME280_pressure;Samples;Min_cycle;Max_cycle;Signal;HPM_P1;HPM_P2
2023/04/15 00:00:39;;;;;;;299.89;123.90;;;;;;;13.79;80.23;98808.66;2489224;27;20478;-73
2023/04/15 00:00:51;;;;;;;305.80;128.77;;;;;;;13.76;80.43;98812.31;354481;27;4951;-73
2023/04/15 00:01:01;;;;;;;310.50;130.35;;;;;;;13.77;80.46;98802.66;351752;28;919;-72
2023/04/15 00:01:17;;;;;;;310.93;130.07;;;;;;;13.76;80.38;98808.84;348665;28;4973;-72
2023/04/15 00:01:28;;;;;;;304.88;125.93;;;;;;;13.76;80.54;98809.69;349669;28;1868;-72
2023/04/15 00:01:39;;;;;;;304.58;125.78;;;;;;;13.74;80.88;98810.75;347694;28;4158;-72
2023/04/15 00:01:49;;;;;;;304.07;125.03;;;;;;;13.72;80.40;98810.00;350197;28;2868;-73
2023/04/15 00:01:59;;;;;;;310.85;129.98;;;;;;;13.74;80.62;98810.75;351579;28;1212;-73
2023/04/15 00:02:17;;;;;;;310.63;129.37;;;;;;;13.74;80.70;98810.75;350337;28;1406;-73
2023/04/15 00:02:28;;;;;;;306.25;126.47;;;;;;;13.70;80.87;98804.84;346091;28;967;-73
2023/04/15 00:02:38;;;;;;;305.05;125.90;;;;;;;13.71;80.72;98806.53;344599;28;4739;-73
2023/04/15 00:02:49;;;;;;;305.77;126.97;;;;;;;13.69;80.82;98810.19;346829;28;4757;-73
2023/04/15 00:03:01;;;;;;;309.77;128.93;;;;;;;13.72;80.92;98807.38;347156;28;5108;-73
2023/04/15 00:03:11;;;;;;;309.67;129.23;;;;;;;13.71;80.73;98806.53;348865;28;1684;-74
2023/04/15 00:03:22;;;;;;;308.23;128.50;;;;;;;13.70;80.99;98809.25;347431;28;3219;-73
2023/04/15 00:03:33;;;;;;;305.02;128.95;;;;;;;13.71;80.96;98813.56;348783;28;1208;-74
2023/04/15 00:03:43;;;;;;;305.80;131.15;;;;;;;13.69;80.94;98807.56;344889;28;4333;-73
2023/04/15 00:03:54;;;;;;;306.70;131.53;;;;;;;13.70;81.15;98809.25;345353;28;2979;-73
2023/04/15 00:04:04;;;;;;;311.55;133.07;;;;;;;13.70;81.12;98809.25;348889;28;913;-73
2023/04/15 00:04:15;;;;;;;311.33;131.00;;;;;;;13.69;80.80;98808.41;350274;28;1506;-74
2023/04/15 00:04:26;;;;;;;308.83;128.55;;;;;;;13.69;81.04;98807.56;349230;28;1294;-74
2023/04/15 00:04:36;;;;;;;303.77;127.70;;;;;;;13.68;81.12;98808.50;347887;28;3722;-74
2023/04/15 00:04:47;;;;;;;304.73;129.43;;;;;;;13.63;81.26;98803.56;344713;28;4653;-74
2023/04/15 00:04:57;;;;;;;306.63;130.07;;;;;;;13.65;81.05;98807.78;348145;28;3224;-74
2023/04/15 00:05:08;;;;;;;310.93;130.47;;;;;;;13.63;80.88;98799.13;348794;28;1015;-74
2023/04/15 00:05:18;;;;;;;310.42;129.88;;;;;;;13.67;80.78;98805.03;345930;28;4912;-74
2023/04/15 00:05:29;;;;;;;310.33;130.23;;;;;;;13.67;80.93;98809.47;345667;28;1527;-74
2023/04/15 00:05:40;;;;;;;307.33;130.77;;;;;;;13.67;80.81;98804.19;342017;28;4564;-73
2023/04/15 00:05:50;;;;;;;311.75;131.90;;;;;;;13.69;80.67;98807.56;345450;28;4573;-73
2023/04/15 00:06:01;;;;;;;310.85;132.38;;;;;;;13.68;80.72;98808.50;347453;28;1064;-73
2023/04/15 00:06:12;;;;;;;310.87;130.73;;;;;;;13.67;80.79;98802.41;348699;28;1343;-74
2023/04/15 00:06:22;;;;;;;306.67;129.98;;;;;;;13.68;80.62;98806.72;345820;28;1015;-74
2023/04/15 00:06:33;;;;;;;307.17;129.60;;;;;;;13.70;80.72;98809.25;343169;28;2564;-74
2023/04/15 00:06:50;;;;;;;310.20;130.83;;;;;;;13.71;80.90;98805.69;341165;28;2742;-73
2023/04/15 00:07:01;;;;;;;313.63;132.48;;;;;;;13.72;80.98;98807.38;342304;28;1148;-73
2023/04/15 00:07:12;;;;;;;310.27;131.40;;;;;;;13.71;80.65;98805.69;343736;28;3173;-73
2023/04/15 00:07:22;;;;;;;311.48;131.52;;;;;;;13.71;80.54;98800.41;346766;28;1117;-73
2023/04/15 00:07:33;;;;;;;304.90;126.87;;;;;;;13.71;80.85;98800.41;345209;28;3478;-73
2023/04/15 00:07:45;;;;;;;306.27;129.17;;;;;;;13.72;80.42;98808.22;342397;28;4688;-73
2023/04/15 00:07:56;;;;;;;307.83;129.13;;;;;;;13.71;80.61;98803.88;346076;28;1296;-73
2023/04/15 00:08:07;;;;;;;310.73;130.55;;;;;;;13.70;80.70;98796.94;344751;28;921;-73
2023/04/15 00:08:17;;;;;;;310.03;129.90;;;;;;;13.69;80.70;98799.69;344195;28;3143;-73
2023/04/15 00:08:28;;;;;;;305.38;128.55;;;;;;;13.70;80.84;98798.72;346173;28;1204;-73
2023/04/15 00:08:39;;;;;;;306.98;129.57;;;;;;;13.68;80.71;98798.00;340194;28;4459;-73
2023/04/15 00:08:49;;;;;;;308.38;131.57;;;;;;;13.70;80.63;98804.00;342486;28;3075;-73
2023/04/15 00:08:59;;;;;;;313.17;133.90;;;;;;;13.69;80.91;98802.31;341933;28;1418;-73
2023/04/15 00:09:10;;;;;;;312.03;132.90;;;;;;;13.67;81.06;98802.41;343243;28;3327;-73
2023/04/15 00:09:20;;;;;;;312.48;131.73;;;;;;;13.65;81.01;98801.66;343903;28;1577;-73
2023/04/15 00:09:31;;;;;;;307.90;129.83;;;;;;;13.67;81.13;98809.47;340483;28;4194;-74
2023/04/15 00:09:41;;;;;;;308.83;130.85;;;;;;;13.65;81.13;98799.88;338653;29;2815;-73
2023/04/15 00:09:54;;;;;;;308.20;131.98;;;;;;;13.66;81.19;98803.34;338015;29;1397;-73
2023/04/15 00:10:04;;;;;;;311.98;131.73;;;;;;;13.64;81.21;98795.56;337266;29;944;-73
2023/04/15 00:10:15;;;;;;;311.13;130.45;;;;;;;13.64;81.32;98798.19;335776;29;3045;-73
2023/04/15 00:10:26;;;;;;;308.40;130.40;;;;;;;13.64;81.46;98811.34;338151;29;977;-73
2023/04/15 00:10:36;;;;;;;308.40;132.75;;;;;;;13.63;81.16;98804.41;331718;29;4364;-74
2023/04/15 00:10:46;;;;;;;309.13;133.57;;;;;;;13.64;81.39;98800.81;333257;29;3165;-73
2023/04/15 00:11:01;;;;;;;311.15;132.85;;;;;;;13.63;81.39;98796.50;335625;29;862;-75
2023/04/15 00:11:12;;;;;;;309.52;129.18;;;;;;;13.63;81.71;98799.13;332147;29;2734;-74
2023/04/15 00:11:23;;;;;;;306.70;127.93;;;;;;;13.63;81.53;98809.66;330240;29;2187;-75
2023/04/15 00:11:33;;;;;;;304.55;127.45;;;;;;;13.61;81.57;98802.81;328068;29;2837;-73
2023/04/15 00:11:45;;;;;;;307.35;130.48;;;;;;;13.61;81.50;98802.81;323559;30;4337;-73
2023/04/15 00:11:55;;;;;;;309.77;132.10;;;;;;;13.61;81.42;98806.28;325735;30;1656;-74
2023/04/15 00:12:05;;;;;;;314.55;135.27;;;;;;;13.60;81.49;98804.59;326401;30;1376;-74
2023/04/15 00:12:16;;;;;;;313.70;133.87;;;;;;;13.59;81.44;98800.28;327410;30;3005;-74
2023/04/15 00:12:26;;;;;;;308.33;131.43;;;;;;;13.56;81.49;98792.59;326777;30;1395;-74
2023/04/15 00:12:37;;;;;;;309.27;131.60;;;;;;;13.57;81.99;98799.53;320433;30;4466;-74
2023/04/15 00:12:47;;;;;;;311.60;131.67;;;;;;;13.54;81.78;98804.16;319537;30;3011;-74
2023/04/15 00:12:57;;;;;;;319.73;133.82;;;;;;;13.52;81.56;98801.63;316335;31;973;-74
2023/04/15 00:13:08;;;;;;;316.80;132.03;;;;;;;13.50;81.90;98798.25;323789;30;2955;-74
2023/04/15 00:13:19;;;;;;;312.85;130.18;;;;;;;13.49;81.72;98793.94;319654;30;2534;-74
2023/04/15 00:13:29;;;;;;;305.17;127.70;;;;;;;13.51;81.60;98801.72;318571;30;3782;-74
2023/04/15 00:13:40;;;;;;;306.67;130.23;;;;;;;13.50;81.89;98803.50;321707;30;4603;-74
2023/04/15 00:13:50;;;;;;;307.55;132.40;;;;;;;13.51;81.73;98804.34;321178;30;3928;-73
2023/04/15 00:14:01;;;;;;;309.90;133.27;;;;;;;13.50;81.60;98797.41;317801;30;4778;-73
2023/04/15 00:14:12;;;;;;;307.95;130.52;;;;;;;13.50;81.46;98800.03;316676;31;2888;-73
2023/04/15 00:14:22;;;;;;;309.70;131.02;;;;;;;13.47;81.63;98797.63;316039;30;3181;-73
2023/04/15 00:14:34;;;;;;;310.33;130.70;;;;;;;13.48;81.37;98800.16;313975;31;2755;-73
2023/04/15 00:14:45;;;;;;;312.27;133.98;;;;;;;13.48;81.30;98794.88;314912;30;4775;-73
2023/04/15 00:14:55;;;;;;;308.58;131.75;;;;;;;13.51;81.56;98799.94;313115;31;2880;-73
2023/04/15 00:15:08;;;;;;;309.45;131.88;;;;;;;13.51;80.99;98799.94;313120;31;2987;-73
2023/04/15 00:15:18;;;;;;;309.52;130.30;;;;;;;13.52;81.16;98799.00;310974;31;3346;-73
2023/04/15 00:15:29;;;;;;;308.77;129.13;;;;;;;13.51;81.15;98796.47;314475;31;3598;-73
2023/04/15 00:15:39;;;;;;;309.60;131.70;;;;;;;13.52;81.01;98804.25;312418;31;3610;-74
2023/04/15 00:15:49;;;;;;;307.13;130.05;;;;;;;13.49;80.88;98800.97;313602;31;3378;-73
2023/04/15 00:16:00;;;;;;;308.77;131.60;;;;;;;13.50;81.19;98800.03;309872;31;3487;-73
2023/04/15 00:16:11;;;;;;;305.85;128.65;;;;;;;13.50;81.29;98800.03;310437;31;4666;-74
2023/04/15 00:16:21;;;;;;;307.90;130.27;;;;;;;13.51;81.10;98799.09;307619;31;3679;-73
2023/04/15 00:16:32;;;;;;;307.48;130.13;;;;;;;13.52;80.97;98806.88;309573;31;3155;-73
2023/04/15 00:16:42;;;;;;;308.40;132.27;;;;;;;13.50;80.96;98798.25;308327;31;2893;-73
2023/04/15 00:16:55;;;;;;;308.23;131.80;;;;;;;13.51;81.03;98799.94;309968;31;3003;-73
2023/04/15 00:17:05;;;;;;;308.48;132.45;;;;;;;13.53;80.91;98799.84;310957;31;3820;-73
2023/04/15 00:17:16;;;;;;;306.50;129.00;;;;;;;13.52;81.07;98798.16;312924;31;4130;-73
2023/04/15 00:17:26;;;;;;;305.80;129.40;;;;;;;13.50;80.79;98800.88;307960;31;2703;-73
2023/04/15 00:17:38;;;;;;;305.02;128.10;;;;;;;13.46;81.20;98802.03;304964;32;4621;-73
2023/04/15 00:17:50;;;;;;;306.55;129.18;;;;;;;13.46;81.12;98809.91;303955;32;4592;-72
2023/04/15 00:18:01;;;;;;;306.45;128.55;;;;;;;13.46;81.34;98799.41;304763;32;4294;-72
2023/04/15 00:18:11;;;;;;;307.50;129.75;;;;;;;13.49;81.18;98806.25;305214;32;4171;-72
2023/04/15 00:18:23;;;;;;;307.13;129.00;;;;;;;13.49;81.00;98799.19;304626;32;4497;-72
2023/04/15 00:18:34;;;;;;;307.52;130.20;;;;;;;13.50;81.03;98803.50;305497;32;5690;-72
2023/04/15 00:18:45;;;;;;;305.35;127.32;;;;;;;13.49;81.02;98807.09;302305;32;3346;-71
2023/04/15 00:18:55;;;;;;;303.58;126.88;;;;;;;13.50;81.14;98803.50;299987;32;822;-71
2023/04/15 00:19:06;;;;;;;304.77;127.77;;;;;;;13.52;80.83;98806.03;300307;32;4017;-73
2023/04/15 00:19:16;;;;;;;305.75;128.57;;;;;;;13.50;81.00;98808.78;300285;32;4971;-72
2023/04/15 00:19:26;;;;;;;309.10;128.90;;;;;;;13.51;80.95;98805.19;299215;32;1353;-72
2023/04/15 00:19:37;;;;;;;308.17;127.53;;;;;;;13.51;81.20;98810.47;295939;32;6333;-72
2023/04/15 00:19:47;;;;;;;309.43;129.07;;;;;;;13.50;81.30;98807.94;293315;33;6386;-72
2023/04/15 00:19:58;;;;;;;305.92;129.15;;;;;;;13.47;81.21;98808.97;294674;33;1329;-72
2023/04/15 00:20:09;;;;;;;306.10;129.07;;;;;;;13.45;81.15;98810.00;293406;33;1547;-72
2023/04/15 00:20:19;;;;;;;306.13;128.07;;;;;;;13.43;81.22;98812.75;292931;33;5826;-72
2023/04/15 00:20:30;;;;;;;307.63;127.87;;;;;;;13.45;81.22;98816.13;294074;33;6490;-72
2023/04/15 00:20:40;;;;;;;307.73;129.07;;;;;;;13.45;81.18;98812.66;293367;33;1662;-72
2023/04/15 00:20:51;;;;;;;307.23;129.65;;;;;;;13.46;81.02;98812.53;291014;33;4950;-72
2023/04/15 00:21:02;;;;;;;306.00;130.27;;;;;;;13.48;81.06;98815.91;288165;33;5078;-73
2023/04/15 00:21:12;;;;;;;306.30;128.73;;;;;;;13.46;81.01;98812.53;287990;34;876;-73
2023/04/15 00:21:22;;;;;;;306.00;128.00;;;;;;;13.46;81.26;98812.53;284964;34;6933;-74
2023/04/15 00:21:33;;;;;;;307.20;128.23;;;;;;;13.44;81.53;98811.81;283062;34;7182;-74
2023/04/15 00:21:43;;;;;;;307.27;127.28;;;;;;;13.45;81.13;98821.38;283096;34;8283;-73
2023/04/15 00:21:54;;;;;;;307.67;126.93;;;;;;;13.46;81.22;98816.97;281426;35;1541;-74
2023/04/15 00:22:05;;;;;;;305.50;125.68;;;;;;;13.36;81.75;98823.78;280903;34;9407;-73
2023/04/15 00:22:16;;;;;;;305.83;127.73;;;;;;;13.26;82.18;98815.66;281318;34;10212;-73
2023/04/15 00:22:26;;;;;;;304.63;128.10;;;;;;;13.22;82.40;98819.41;282568;34;956;-72
2023/04/15 00:22:36;;;;;;;305.40;127.43;;;;;;;13.24;82.61;98825.41;277364;35;8343;-71
2023/04/15 00:22:47;;;;;;;305.97;127.03;;;;;;;13.25;82.38;98822.69;274707;35;9070;-71
2023/04/15 00:22:59;;;;;;;306.45;127.50;;;;;;;13.26;82.32;98823.53;277089;35;1280;-71
2023/04/15 00:23:09;;;;;;;306.48;128.07;;;;;;;13.25;82.13;98827.09;273823;36;970;-71
2023/04/15 00:23:20;;;;;;;306.10;128.17;;;;;;;13.28;82.12;98829.53;269796;35;7283;-71
2023/04/15 00:25:22;;;;;;;298.08;117.44;;;;;;;13.32;81.87;98825.75;2500833;27;20801;-72
2023/04/15 00:25:32;;;;;;;303.73;121.90;;;;;;;13.30;82.15;98827.66;354252;27;962;-72
2023/04/15 00:25:43;;;;;;;304.83;124.40;;;;;;;13.28;81.82;98824.28;352915;28;858;-72
2023/04/15 00:25:54;;;;;;;303.73;123.82;;;;;;;13.30;82.14;98832.91;348648;28;1345;-72
2023/04/15 00:26:04;;;;;;;302.83;123.43;;;;;;;13.29;81.79;98828.59;347207;28;1432;-72
2023/04/15 00:26:15;;;;;;;303.27;121.93;;;;;;;13.28;82.10;98830.38;347104;28;1507;-72
2023/04/15 00:26:25;;;;;;;303.73;122.70;;;;;;;13.28;82.30;98826.91;348415;28;1138;-72
2023/04/15 00:26:36;;;;;;;305.13;124.70;;;;;;;13.28;82.18;98829.53;348531;28;1276;-72
2023/04/15 00:26:46;;;;;;;305.03;124.10;;;;;;;13.23;82.51;98826.34;348657;28;835;-72
2023/04/15 00:26:57;;;;;;;304.75;122.55;;;;;;;13.24;82.49;98833.28;347487;28;883;-72
2023/04/15 00:27:07;;;;;;;304.42;121.22;;;;;;;13.23;82.25;98832.44;347312;28;867;-72
2023/04/15 00:27:18;;;;;;;307.60;124.50;;;;;;;13.21;82.49;98822.97;345939;28;3556;-72
2023/04/15 00:27:29;;;;;;;308.97;124.93;;;;;;;13.23;82.48;98828.97;348491;28;4800;-72
2023/04/15 00:27:39;;;;;;;313.53;127.00;;;;;;;13.22;82.47;98825.50;348902;28;998;-72
2023/04/15 00:27:50;;;;;;;309.20;124.25;;;;;;;13.23;82.42;98826.34;348821;28;4672;-72
2023/04/15 00:28:00;;;;;;;308.63;123.87;;;;;;;13.22;82.48;98829.91;348819;28;1399;-74
2023/04/15 00:28:11;;;;;;;302.63;121.72;;;;;;;13.21;82.66;98828.22;348078;28;2693;-73
2023/04/15 00:28:21;;;;;;;305.47;123.67;;;;;;;13.20;82.40;98821.28;347205;28;4694;-73
2023/04/15 00:28:32;;;;;;;309.73;123.22;;;;;;;13.21;82.49;98831.72;348966;28;830;-73
2023/04/15 00:28:43;;;;;;;314.55;123.95;;;;;;;13.20;82.52;98826.56;348972;28;899;-73
2023/04/15 00:28:53;;;;;;;311.60;124.10;;;;;;;13.21;82.35;98828.22;348127;28;3205;-73
2023/04/15 00:29:04;;;;;;;306.17;122.33;;;;;;;13.22;82.55;98835.19;347435;28;847;-73
2023/04/15 00:29:14;;;;;;;304.25;121.95;;;;;;;13.23;82.25;98826.34;344513;28;4592;-73
2023/04/15 00:29:25;;;;;;;303.90;121.10;;;;;;;13.23;82.55;98826.34;346242;28;4676;-73
2023/04/15 00:29:35;;;;;;;308.88;123.78;;;;;;;13.24;82.46;98825.41;347509;28;911;-73
2023/04/15 00:29:46;;;;;;;309.00;123.83;;;;;;;13.26;82.38;98831.41;348310;28;1130;-73
2023/04/15 00:29:57;;;;;;;309.10;124.53;;;;;;;13.27;82.41;98827.84;347523;28;885;-73
2023/04/15 00:30:07;;;;;;;303.58;123.18;;;;;;;13.28;82.09;98824.28;346129;28;837;-73
2023/04/15 00:30:18;;;;;;;305.53;125.17;;;;;;;13.26;82.19;98823.53;343582;28;4692;-73
2023/04/15 00:30:28;;;;;;;308.02;126.93;;;;;;;13.28;82.51;98826.91;347081;28;3001;-73
2023/04/15 00:30:39;;;;;;;312.25;127.07;;;;;;;13.29;82.20;98828.59;346142;28;1212;-73
2023/04/15 00:30:50;;;;;;;311.00;126.00;;;;;;;13.28;82.50;98830.38;344638;28;3021;-73
2023/04/15 00:31:00;;;;;;;307.73;124.72;;;;;;;13.29;82.05;98828.59;345076;28;934;-73
2023/04/15 00:31:10;;;;;;;302.27;122.00;;;;;;;13.28;82.03;98829.53;342961;28;1642;-72
2023/04/15 00:31:21;;;;;;;302.83;123.13;;;;;;;13.28;81.99;98829.53;341293;28;4763;-72
2023/04/15 00:31:32;;;;;;;305.45;124.55;;;;;;;13.28;82.31;98829.53;346295;28;4891;-72
2023/04/15 00:31:42;;;;;;;311.33;129.17;;;;;;;13.30;82.19;98835.53;343744;28;1248;-73
2023/04/15 00:31:53;;;;;;;309.65;126.20;;;;;;;13.28;82.26;98830.38;344561;28;4964;-73
2023/04/15 00:32:03;;;;;;;310.90;125.93;;;;;;;13.29;82.12;98836.47;343294;28;1431;-73
2023/04/15 00:32:14;;;;;;;304.10;121.20;;;;;;;13.30;82.00;98830.28;342451;28;1008;-73
2023/04/15 00:32:25;;;;;;;306.90;122.55;;;;;;;13.30;81.90;98827.66;339104;28;4364;-74
2023/04/15 00:32:35;;;;;;;305.00;122.30;;;;;;;13.29;81.93;98829.44;341357;28;3335;-74
2023/04/15 00:32:45;;;;;;;309.92;125.35;;;;;;;13.30;82.12;98832.91;341392;28;1024;-74
2023/04/15 00:32:56;;;;;;;305.63;121.93;;;;;;;13.30;82.11;98830.28;341937;28;3155;-73
2023/04/15 00:33:07;;;;;;;306.10;121.80;;;;;;;13.28;82.30;98829.53;342973;28;892;-73
2023/04/15 00:33:17;;;;;;;300.45;117.85;;;;;;;13.29;82.13;98825.97;338096;28;3930;-73
2023/04/15 00:33:28;;;;;;;303.40;121.67;;;;;;;13.29;82.26;98826.81;336572;29;4857;-72
2023/04/15 00:33:38;;;;;;;304.67;120.70;;;;;;;13.28;82.47;98824.28;342060;28;1678;-71
2023/04/15 00:33:49;;;;;;;310.83;124.03;;;;;;;13.26;82.03;98821.75;339296;29;1277;-71
2023/04/15 00:33:59;;;;;;;309.85;123.03;;;;;;;13.28;82.17;98824.28;337252;29;4746;-73
2023/04/15 00:34:10;;;;;;;305.43;121.10;;;;;;;13.28;82.08;98829.53;333025;29;1971;-72
2023/04/15 00:34:20;;;;;;;302.77;120.07;;;;;;;13.27;82.27;98828.69;330540;29;4548;-71
2023/04/15 00:34:31;;;;;;;302.93;119.87;;;;;;;13.28;82.32;98830.38;331597;29;4810;-71
2023/04/15 00:34:41;;;;;;;307.05;121.43;;;;;;;13.28;82.20;98825.13;333049;29;1038;-71
2023/04/15 00:34:52;;;;;;;306.07;119.23;;;;;;;13.25;82.54;98825.31;332953;29;2982;-71
2023/04/15 00:35:02;;;;;;;306.77;119.28;;;;;;;13.27;82.09;98822.59;335946;29;1338;-71
2023/04/15 00:35:13;;;;;;;304.98;119.22;;;;;;;13.27;82.27;98823.44;335280;29;3468;-72
2023/04/15 00:35:24;;;;;;;307.30;121.93;;;;;;;13.26;82.32;98810.38;333623;29;3093;-72
2023/04/15 00:35:36;;;;;;;308.80;121.68;;;;;;;13.24;82.49;98820.16;334701;29;3103;-71
2023/04/15 00:35:46;;;;;;;311.45;123.10;;;;;;;13.23;82.62;98821.09;333320;29;1875;-71
2023/04/15 00:35:57;;;;;;;309.90;123.45;;;;;;;13.23;82.52;98818.47;328854;29;4594;-71
2023/04/15 00:36:08;;;;;;;304.75;121.30;;;;;;;13.22;82.24;98819.41;328129;30;852;-71
2023/04/15 00:36:19;;;;;;;302.38;121.35;;;;;;;13.23;82.43;98815.84;328709;29;4656;-72
2023/04/15 00:36:30;;;;;;;303.43;121.70;;;;;;;13.21;82.66;98813.31;330592;29;4826;-72
2023/04/15 00:36:41;;;;;;;306.35;123.53;;;;;;;13.22;82.54;98809.75;329214;29;1321;-72
2023/04/15 00:36:51;;;;;;;307.17;122.30;;;;;;;13.23;82.42;98810.59;334230;29;5168;-72
2023/04/15 00:37:02;;;;;;;306.40;120.70;;;;;;;13.23;82.51;98816.69;333346;29;1165;-72
2023/04/15 00:37:12;;;;;;;303.73;119.97;;;;;;;13.23;82.34;98814.06;330356;29;3849;-72
2023/04/15 00:37:22;;;;;;;304.05;120.97;;;;;;;13.22;82.13;98808.91;323090;30;4644;-72
2023/04/15 00:37:34;;;;;;;304.40;122.30;;;;;;;13.24;82.37;98801.75;327372;30;2058;-72
2023/04/15 00:37:44;;;;;;;305.13;120.80;;;;;;;13.24;82.46;98812.28;325189;30;2358;-72
2023/04/15 00:37:54;;;;;;;303.65;119.00;;;;;;;13.26;82.24;98810.38;327892;30;4988;-72
2023/04/15 00:38:06;;;;;;;303.60;119.17;;;;;;;13.24;82.43;98809.66;327300;30;2639;-72
2023/04/15 00:38:16;;;;;;;303.45;121.70;;;;;;;13.24;82.60;98809.66;323213;30;3497;-72
2023/04/15 00:38:27;;;;;;;302.73;119.80;;;;;;;13.21;82.46;98804.59;324966;29;3096;-72
2023/04/15 00:38:38;;;;;;;307.63;120.68;;;;;;;13.22;82.67;98803.66;324505;30;915;-72
2023/04/15 00:38:48;;;;;;;307.27;119.88;;;;;;;13.21;82.65;98799.34;328015;30;1862;-72
2023/04/15 00:38:59;;;;;;;307.63;121.00;;;;;;;13.21;82.76;98800.19;325310;30;1590;-72
2023/04/15 00:39:09;;;;;;;303.75;119.75;;;;;;;13.22;82.85;98803.66;323312;30;4212;-72
2023/04/15 00:39:19;;;;;;;307.03;121.80;;;;;;;13.23;82.68;98800.06;326640;30;4839;-72
2023/04/15 00:39:30;;;;;;;306.88;120.32;;;;;;;13.24;82.66;98801.75;327526;30;2651;-72
2023/04/15 00:39:40;;;;;;;310.67;122.00;;;;;;;13.24;82.58;98802.59;329278;30;1191;-72
2023/04/15 00:39:51;;;;;;;309.38;120.85;;;;;;;13.24;82.75;98801.75;322693;30;5090;-72
2023/04/15 00:40:04;;;;;;;307.63;121.63;;;;;;;13.22;82.76;98799.22;323841;30;2475;-72
2023/04/15 00:40:16;;;;;;;305.00;121.38;;;;;;;13.23;82.90;98798.28;318987;30;4536;-72
2023/04/15 00:40:26;;;;;;;304.98;121.60;;;;;;;13.24;82.71;98796.50;319216;30;3580;-72
2023/04/15 00:40:37;;;;;;;308.50;122.85;;;;;;;13.24;82.72;98799.13;316309;31;878;-72
2023/04/15 00:40:47;;;;;;;305.03;120.23;;;;;;;13.25;82.47;98801.66;317455;30;3431;-72
2023/04/15 00:40:57;;;;;;;305.88;121.20;;;;;;;13.26;82.58;98799.88;318109;30;2523;-72
2023/04/15 00:41:08;;;;;;;303.30;120.43;;;;;;;13.25;82.94;98803.44;318503;30;3970;-72
2023/04/15 00:41:19;;;;;;;308.27;122.68;;;;;;;13.24;82.51;98805.22;316353;31;3077;-72
2023/04/15 00:41:30;;;;;;;310.40;123.63;;;;;;;13.26;82.76;98797.25;317870;30;2781;-72
2023/04/15 00:41:42;;;;;;;309.42;123.25;;;;;;;13.24;82.58;98797.34;318965;30;3342;-72
2023/04/15 00:41:53;;;;;;;305.88;122.95;;;;;;;13.26;82.56;98799.88;317168;31;1355;-72
2023/04/15 00:42:03;;;;;;;301.67;121.23;;;;;;;13.25;82.42;98798.19;315330;31;5194;-72
2023/04/15 00:42:14;;;;;;;306.43;125.03;;;;;;;13.26;82.63;98802.50;311163;31;4532;-72
2023/04/15 00:42:24;;;;;;;306.20;123.72;;;;;;;13.25;82.51;98804.28;310366;31;1348;-72
2023/04/15 00:42:35;;;;;;;310.40;125.20;;;;;;;13.22;82.43;98801.84;311814;31;4533;-73
2023/04/15 00:42:45;;;;;;;308.88;123.50;;;;;;;13.24;82.52;98805.22;312043;31;4174;-72
2023/04/15 00:42:55;;;;;;;310.57;124.90;;;;;;;13.25;82.28;98808.72;310416;31;4718;-72
2023/04/15 00:43:06;;;;;;;304.80;122.22;;;;;;;13.25;82.71;98808.72;309516;31;3201;-72
2023/04/15 00:43:16;;;;;;;304.40;121.90;;;;;;;13.25;82.70;98808.72;308462;31;3556;-72
2023/04/15 00:43:27;;;;;;;304.63;121.67;;;;;;;13.23;82.28;98800.91;305960;31;3304;-72
2023/04/15 00:43:37;;;;;;;305.38;120.38;;;;;;;13.24;82.21;98809.66;307673;32;883;-72
2023/04/15 00:43:48;;;;;;;303.53;119.83;;;;;;;13.24;82.28;98801.75;305664;32;3747;-72
2023/04/15 00:43:59;;;;;;;302.77;121.18;;;;;;;13.18;82.58;98810.03;303910;32;4677;-72
2023/04/15 00:44:10;;;;;;;305.95;123.30;;;;;;;13.13;83.00;98812.09;300531;32;4706;-72
2023/04/15 00:44:20;;;;;;;310.00;125.20;;;;;;;13.05;83.18;98809.09;301664;32;7166;-72
2023/04/15 00:44:31;;;;;;;313.42;125.47;;;;;;;13.03;83.59;98809.19;299004;32;4580;-71
2023/04/15 00:44:42;;;;;;;307.38;121.13;;;;;;;13.05;83.53;98806.47;295075;33;6566;-71
2023/04/15 00:44:52;;;;;;;303.30;117.20;;;;;;;13.05;83.47;98798.59;296334;33;1328;-71
2023/04/15 00:45:04;;;;;;;298.58;115.18;;;;;;;13.08;83.63;98798.41;292130;33;5979;-71
2023/04/15 00:45:14;;;;;;;300.30;117.54;;;;;;;13.09;83.39;98808.81;293424;33;6701;-73
2023/04/15 00:45:25;;;;;;;305.13;120.30;;;;;;;13.11;83.10;98808.72;293229;33;879;-75
2023/04/15 00:45:36;;;;;;;304.48;118.97;;;;;;;13.10;83.27;98801.78;291894;33;5170;-73
2023/04/15 00:45:46;;;;;;;308.00;120.33;;;;;;;13.12;83.27;98805.13;290965;33;5111;-73
2023/04/15 00:45:56;;;;;;;303.60;118.78;;;;;;;13.12;83.07;98798.09;287180;34;6482;-72
2023/04/15 00:46:08;;;;;;;305.83;121.70;;;;;;;13.12;83.19;98805.13;284300;34;4463;-72
2023/04/15 00:46:19;;;;;;;303.80;122.13;;;;;;;13.14;83.40;98800.63;283874;34;6991;-72
2023/04/15 00:46:30;;;;;;;310.55;123.88;;;;;;;13.15;83.16;98807.56;284263;34;9649;-72
2023/04/15 00:46:40;;;;;;;308.95;120.60;;;;;;;13.12;83.15;98807.78;286280;34;2757;-72
2023/04/15 00:46:50;;;;;;;308.77;121.23;;;;;;;13.12;83.30;98807.78;283428;34;7601;-72
2023/04/15 00:47:01;;;;;;;303.47;121.37;;;;;;;13.12;83.23;98803.34;279260;34;9121;-72
2023/04/15 00:47:12;;;;;;;305.52;123.75;;;;;;;13.14;83.15;98808.50;277528;35;8400;-72
2023/04/15 00:47:23;;;;;;;308.10;122.65;;;;;;;13.15;83.02;98802.31;277420;35;796;-72
2023/04/15 00:47:33;;;;;;;307.65;120.00;;;;;;;13.15;83.01;98797.91;275415;35;9598;-72
2023/04/15 00:47:44;;;;;;;305.27;118.83;;;;;;;13.16;82.79;98804.88;276878;35;6984;-72
2023/04/15 00:49:19;;;;;;;297.92;115.17;;;;;;;13.16;82.74;98802.25;2493063;27;20279;-71
2023/04/15 00:49:29;;;;;;;303.40;115.53;;;;;;;13.16;82.69;98798.78;354582;27;940;-71
2023/04/15 00:49:40;;;;;;;303.40;116.95;;;;;;;13.10;82.83;98793.88;351644;28;4956;-71
2023/04/15 00:49:50;;;;;;;302.50;119.45;;;;;;;13.14;82.88;98800.63;349833;28;2516;-71
2023/04/15 00:50:01;;;;;;;302.50;121.20;;;;;;;13.12;82.83;98798.09;348311;28;4739;-71
2023/04/15 00:50:13;;;;;;;302.55;118.95;;;;;;;13.10;83.02;98799.97;350681;28;3209;-71
2023/04/15 00:50:23;;;;;;;305.10;119.22;;;;;;;13.09;82.96;98802.72;350375;28;773;-71
2023/04/15 00:50:33;;;;;;;305.92;119.15;;;;;;;13.04;83.19;98803.00;347493;28;3123;-71
2023/04/15 00:50:44;;;;;;;306.50;121.13;;;;;;;13.04;83.14;98805.63;347105;28;1216;-71
2023/04/15 00:50:54;;;;;;;302.83;119.63;;;;;;;13.05;83.25;98803.84;347524;28;1524;-71
2023/04/15 00:51:06;;;;;;;304.07;118.93;;;;;;;13.00;83.24;98799.72;347397;28;871;-71
2023/04/15 00:51:16;;;;;;;304.08;119.30;;;;;;;13.02;83.43;98794.38;348441;28;951;-71
2023/04/15 00:51:27;;;;;;;304.60;119.87;;;;;;;13.04;83.30;98799.53;348609;28;1200;-71
2023/04/15 00:51:37;;;;;;;304.35;120.07;;;;;;;13.04;83.42;98800.38;348547;28;1239;-71
2023/04/15 00:51:48;;;;;;;305.30;120.37;;;;;;;13.06;83.32;98802.91;347320;28;1398;-71
2023/04/15 00:51:58;;;;;;;304.30;118.88;;;;;;;13.03;83.43;98798.69;345880;28;853;-71
2023/04/15 00:52:08;;;;;;;304.07;118.30;;;;;;;13.05;83.52;98801.22;347352;28;849;-71
2023/04/15 00:52:19;;;;;;;303.58;118.18;;;;;;;13.08;83.56;98808.91;345819;28;1299;-71
2023/04/15 00:52:29;;;;;;;303.10;119.17;;;;;;;13.06;83.45;98798.50;346016;28;809;-71
2023/04/15 00:52:40;;;;;;;302.70;120.68;;;;;;;13.08;83.19;98801.88;347158;28;1340;-71
2023/04/15 00:52:51;;;;;;;303.35;121.85;;;;;;;13.10;83.26;98799.16;346064;28;887;-71
2023/04/15 00:53:01;;;;;;;304.10;122.83;;;;;;;13.10;82.97;98804.41;347111;28;836;-71
2023/04/15 00:53:11;;;;;;;302.57;121.87;;;;;;;13.11;82.86;98803.47;345767;28;1022;-71
2023/04/15 00:53:22;;;;;;;302.17;121.43;;;;;;;13.13;83.05;98799.78;347352;28;896;-71